createdAt,value
2018-07-27T00:00:39.741Z,99642.75
2018-07-27T00:03:07.497Z,99644.65
2018-07-27T00:05:35.098Z,99647.31
2018-07-27T00:08:02.747Z,99642.48
2018-07-27T00:10:36.061Z,99642.14
2018-07-27T00:13:03.796Z,99637.78
2018-07-27T00:15:31.478Z,99643.30
2018-07-27T00:17:59.121Z,99652.18
2018-07-27T00:20:26.761Z,99651.38
2018-07-27T00:22:54.397Z,99641.96
2018-07-27T00:25:21.984Z,99644.13
2018-07-27T00:27:49.669Z,99647.53
2018-07-27T00:30:17.233Z,99636.34
2018-07-27T00:32:44.857Z,99645.82
2018-07-27T00:35:12.574Z,99647.38
2018-07-27T00:37:40.145Z,99638.30
2018-07-27T00:40:07.897Z,99641.05
2018-07-27T00:42:35.530Z,99637.62
2018-07-27T00:45:03.599Z,99641.85
2018-07-27T00:47:31.324Z,99643.75
2018-07-27T00:49:58.916Z,99635.78
2018-07-27T00:52:26.567Z,99639.29
2018-07-27T00:54:54.361Z,99640.69
2018-07-27T00:57:21.950Z,99642.02
2018-07-27T00:59:49.536Z,99640.13
2018-07-27T01:02:17.201Z,99635.31
2018-07-27T01:04:44.890Z,99640.39
2018-07-27T01:07:12.693Z,99637.69
2018-07-27T01:09:40.305Z,99637.72
2018-07-27T01:12:08.081Z,99633.71
2018-07-27T01:14:35.769Z,99637.45
2018-07-27T01:17:03.464Z,99636.05
2018-07-27T01:19:31.193Z,99632.45
2018-07-27T01:21:58.889Z,99636.25
2018-07-27T01:24:26.633Z,99633.14
2018-07-27T01:26:54.277Z,99630.79
2018-07-27T01:29:21.924Z,99629.74
2018-07-27T01:31:49.545Z,99624.51
2018-07-27T01:34:17.284Z,99628.95
2018-07-27T01:36:44.928Z,99626.02
2018-07-27T01:39:14.045Z,99627.25
2018-07-27T01:41:42.228Z,99633.31
2018-07-27T01:44:10.197Z,99625.77
2018-07-27T01:46:38.169Z,99627.94
2018-07-27T01:49:06.921Z,99623.22
2018-07-27T01:51:34.613Z,99624.51
2018-07-27T01:54:02.292Z,99618.16
2018-07-27T01:56:30.021Z,99626.22
2018-07-27T01:58:57.690Z,99622.56
2018-07-27T02:01:25.342Z,99621.64
2018-07-27T02:03:53.286Z,99618.61
2018-07-27T02:06:21.009Z,99619.00
2018-07-27T02:08:48.628Z,99616.61
2018-07-27T02:11:16.382Z,99619.27
2018-07-27T02:13:50.669Z,99611.55
2018-07-27T02:16:18.425Z,99612.35
2018-07-27T02:18:46.052Z,99611.21
2018-07-27T02:21:13.653Z,99616.90
2018-07-27T02:23:41.331Z,99613.86
2018-07-27T02:26:09.025Z,99617.72
2018-07-27T02:28:36.690Z,99616.52
2018-07-27T02:31:04.828Z,99608.19
2018-07-27T02:33:32.470Z,99613.98
2018-07-27T02:36:00.225Z,99615.77
2018-07-27T02:38:27.849Z,99614.77
2018-07-27T02:40:55.545Z,99612.37
2018-07-27T02:43:23.208Z,99615.30
2018-07-27T02:45:50.891Z,99614.15
2018-07-27T02:48:18.665Z,99610.17
2018-07-27T02:50:46.325Z,99618.59
2018-07-27T02:53:14.082Z,99609.73
2018-07-27T02:55:41.868Z,99613.38
2018-07-27T02:58:09.581Z,99606.70
2018-07-27T03:00:37.260Z,99600.02
2018-07-27T03:03:04.885Z,99604.86
2018-07-27T03:05:32.566Z,99605.65
2018-07-27T03:08:00.229Z,99599.73
2018-07-27T03:10:36.346Z,99596.54
2018-07-27T03:13:04.114Z,99597.70
2018-07-27T03:15:31.757Z,99595.19
2018-07-27T03:17:59.523Z,99599.44
2018-07-27T03:20:27.154Z,99599.44
2018-07-27T03:22:54.778Z,99597.76
2018-07-27T03:25:22.421Z,99606.83
2018-07-27T03:27:50.153Z,99605.63
2018-07-27T03:30:17.865Z,99603.86
2018-07-27T03:32:45.617Z,99605.91
2018-07-27T03:35:13.254Z,99607.60
2018-07-27T03:37:41.016Z,99603.83
2018-07-27T03:40:08.826Z,99608.52
2018-07-27T03:42:36.480Z,99608.91
2018-07-27T03:45:04.267Z,99608.09
2018-07-27T03:47:32.069Z,99604.29
2018-07-27T03:49:59.715Z,99603.77
2018-07-27T03:52:27.485Z,99603.48
2018-07-27T03:54:55.190Z,99601.70
2018-07-27T03:57:22.921Z,99598.70
2018-07-27T03:59:50.584Z,99603.66
2018-07-27T04:02:18.335Z,99599.51
2018-07-27T04:04:46.037Z,99604.61
2018-07-27T04:07:13.760Z,99605.80
2018-07-27T04:09:41.442Z,99611.35
2018-07-27T04:12:09.137Z,99606.08
2018-07-27T04:14:36.776Z,99606.83
2018-07-27T04:17:04.465Z,99602.64
2018-07-27T04:19:32.202Z,99602.45
2018-07-27T04:21:59.875Z,99612.68
2018-07-27T04:24:27.681Z,99610.27
2018-07-27T04:26:55.364Z,99612.94
2018-07-27T04:29:23.326Z,99607.33
2018-07-27T04:31:51.034Z,99610.84
2018-07-27T04:34:18.673Z,99605.97
2018-07-27T04:36:46.384Z,99608.12
2018-07-27T04:39:14.121Z,99605.80
2018-07-27T04:41:41.895Z,99603.91
2018-07-27T04:44:09.635Z,99607.93
2018-07-27T04:46:37.305Z,99602.41
2018-07-27T04:49:05.205Z,99606.07
2018-07-27T04:51:33.129Z,99608.44
2018-07-27T04:54:01.018Z,99607.38
2018-07-27T04:56:28.836Z,99613.45
2018-07-27T04:58:56.453Z,99609.27
2018-07-27T05:01:24.207Z,99612.41
2018-07-27T05:03:51.865Z,99613.30
2018-07-27T05:06:19.517Z,99612.94
2018-07-27T05:08:52.890Z,99608.64
2018-07-27T05:11:20.611Z,99613.44
2018-07-27T05:13:48.214Z,99617.77
2018-07-27T05:16:15.917Z,99613.89
2018-07-27T05:18:43.566Z,99616.67
2018-07-27T05:21:11.241Z,99622.70
2018-07-27T05:23:39.005Z,99624.71
2018-07-27T05:26:06.780Z,99626.30
2018-07-27T05:28:34.521Z,99635.48
2018-07-27T05:31:02.213Z,99635.67
2018-07-27T05:33:29.986Z,99631.89
2018-07-27T05:35:57.704Z,99632.68
2018-07-27T05:38:25.381Z,99633.76
2018-07-27T05:40:53.088Z,99634.38
2018-07-27T05:43:20.753Z,99637.80
2018-07-27T05:45:48.494Z,99634.18
2018-07-27T05:48:16.430Z,99635.52
2018-07-27T05:50:44.119Z,99639.47
2018-07-27T05:53:11.897Z,99639.98
2018-07-27T05:55:39.563Z,99636.08
2018-07-27T05:58:07.321Z,99640.84
2018-07-27T06:00:34.963Z,99637.94
2018-07-27T06:03:02.682Z,99637.47
2018-07-27T06:05:30.304Z,99646.33
2018-07-27T06:07:58.056Z,99639.64
2018-07-27T06:10:25.709Z,99641.80
2018-07-27T06:12:53.425Z,99639.66
2018-07-27T06:15:21.208Z,99640.72
2018-07-27T06:17:48.952Z,99640.13
2018-07-27T06:20:16.785Z,99639.68
2018-07-27T06:22:44.461Z,99632.92
2018-07-27T06:25:12.208Z,99638.99
2018-07-27T06:27:39.997Z,99642.23
2018-07-27T06:30:07.757Z,99645.75
2018-07-27T06:32:35.517Z,99640.35
2018-07-27T06:35:03.277Z,99639.24
2018-07-27T06:37:31.032Z,99643.94
2018-07-27T06:39:59.264Z,99642.31
2018-07-27T06:42:26.911Z,99647.56
2018-07-27T06:44:54.673Z,99638.59
2018-07-27T06:47:22.391Z,99645.38
2018-07-27T06:49:50.090Z,99641.81
2018-07-27T06:52:17.838Z,99638.20
2018-07-27T06:54:45.640Z,99647.83
2018-07-27T06:57:13.358Z,99649.16
2018-07-27T06:59:41.120Z,99651.45
2018-07-27T07:02:08.753Z,99658.19
2018-07-27T07:04:36.415Z,99655.56
2018-07-27T07:07:04.106Z,99661.88
2018-07-27T07:09:31.754Z,99652.35
2018-07-27T07:11:59.461Z,99647.96
2018-07-27T07:14:27.131Z,99651.80
2018-07-27T07:16:54.866Z,99652.84
2018-07-27T07:19:22.538Z,99650.47
2018-07-27T07:21:50.318Z,99652.08
2018-07-27T07:24:18.159Z,99651.27
2018-07-27T07:26:45.829Z,99654.05
2018-07-27T07:29:13.578Z,99653.77
2018-07-27T07:31:41.264Z,99649.67
2018-07-27T07:34:08.929Z,99647.53
2018-07-27T07:36:36.674Z,99641.04
2018-07-27T07:39:08.314Z,99635.56
2018-07-27T07:41:36.214Z,99634.36
2018-07-27T07:44:04.301Z,99631.82
2018-07-27T07:46:31.977Z,99629.30
2018-07-27T07:49:04.113Z,99626.22
2018-07-27T07:51:32.908Z,99624.64
2018-07-27T07:54:00.569Z,99627.13
2018-07-27T07:56:28.298Z,99623.55
2018-07-27T07:58:55.959Z,99621.75
2018-07-27T08:01:23.646Z,99617.33
2018-07-27T08:03:51.418Z,99619.13
2018-07-27T08:06:19.072Z,99610.64
2018-07-27T08:08:46.877Z,99610.17
2018-07-27T08:11:14.643Z,99610.66
2018-07-27T08:13:42.380Z,99606.05
2018-07-27T08:16:10.242Z,99601.49
2018-07-27T08:18:37.908Z,99598.16
2018-07-27T08:21:05.889Z,99604.44
2018-07-27T08:23:33.637Z,99604.58
2018-07-27T08:26:16.585Z,99605.52
2018-07-27T08:28:44.549Z,99604.78
2018-07-27T08:31:12.213Z,99601.86
2018-07-27T08:33:39.953Z,99598.02
2018-07-27T08:36:07.730Z,99596.28
2018-07-27T08:38:35.368Z,99599.89
2018-07-27T08:41:03.037Z,99596.60
2018-07-27T08:43:30.810Z,99593.16
2018-07-27T08:45:58.466Z,99589.05
2018-07-27T08:48:26.261Z,99581.52
2018-07-27T08:50:53.932Z,99581.20
2018-07-27T08:53:21.682Z,99575.19
2018-07-27T08:55:49.371Z,99575.47
2018-07-27T08:58:17.093Z,99571.91
2018-07-27T09:00:54.381Z,99569.38
2018-07-27T09:03:22.097Z,99569.55
2018-07-27T09:05:49.874Z,99571.45
2018-07-27T09:08:17.641Z,99569.22
2018-07-27T09:10:45.352Z,99566.36
2018-07-27T09:13:13.126Z,99565.38
2018-07-27T09:15:40.858Z,99567.77
2018-07-27T09:18:08.764Z,99557.23
2018-07-27T09:20:36.538Z,99553.13
2018-07-27T09:23:04.302Z,99549.83
2018-07-27T09:25:33.030Z,99548.78
2018-07-27T09:28:00.766Z,99550.70
2018-07-27T09:30:28.994Z,99545.85
2018-07-27T09:32:56.905Z,99541.34
2018-07-27T09:35:24.826Z,99544.11
2018-07-27T09:37:52.488Z,99539.59
2018-07-27T09:40:20.393Z,99538.77
2018-07-27T09:42:48.054Z,99536.53
2018-07-27T09:45:15.801Z,99537.19
2018-07-27T09:47:43.489Z,99540.92
2018-07-27T09:50:11.237Z,99539.81
2018-07-27T09:52:38.919Z,99532.54
2018-07-27T09:55:06.601Z,99530.27
2018-07-27T09:57:34.378Z,99531.62
2018-07-27T10:00:02.082Z,99530.41
2018-07-27T10:02:29.793Z,99527.89
2018-07-27T10:04:57.548Z,99523.45
2018-07-27T10:07:25.297Z,99519.84
2018-07-27T10:09:53.042Z,99515.30
2018-07-27T10:12:20.785Z,99511.69
2018-07-27T10:14:48.493Z,99514.28
2018-07-27T10:17:16.233Z,99506.69
2018-07-27T10:19:44.103Z,99514.16
2018-07-27T10:22:11.869Z,99510.98
2018-07-27T10:24:39.609Z,99506.47
2018-07-27T10:27:07.253Z,99508.27
2018-07-27T10:29:34.920Z,99504.39
2018-07-27T10:32:02.887Z,99506.77
2018-07-27T10:34:30.558Z,99508.92
2018-07-27T10:36:58.231Z,99512.48
2018-07-27T10:39:25.902Z,99500.53
2018-07-27T10:41:53.674Z,99497.17
2018-07-27T10:44:21.375Z,99502.60
2018-07-27T10:46:49.095Z,99495.44
2018-07-27T10:49:17.001Z,99497.45
2018-07-27T10:51:44.732Z,99494.14
2018-07-27T10:54:12.498Z,99492.63
2018-07-27T10:56:40.273Z,99490.63
2018-07-27T10:59:08.517Z,99482.84
2018-07-27T11:01:36.350Z,99476.82
2018-07-27T11:04:04.070Z,99481.65
2018-07-27T11:06:31.739Z,99474.84
2018-07-27T11:08:59.789Z,99471.34
2018-07-27T11:11:27.613Z,99474.36
2018-07-27T11:13:55.305Z,99464.47
2018-07-27T11:16:23.037Z,99461.84
2018-07-27T11:18:50.649Z,99467.58
2018-07-27T11:21:18.299Z,99459.82
2018-07-27T11:23:45.996Z,99456.48
2018-07-27T11:26:13.674Z,99449.23
2018-07-27T11:28:41.401Z,99446.30
2018-07-27T11:31:09.082Z,99440.92
2018-07-27T11:33:36.811Z,99442.20
2018-07-27T11:36:04.545Z,99438.78
2018-07-27T11:38:32.221Z,99431.70
2018-07-27T11:40:59.950Z,99436.75
2018-07-27T11:43:27.689Z,99437.80
2018-07-27T11:45:55.498Z,99431.58
2018-07-27T11:48:23.209Z,99429.77
2018-07-27T11:50:50.873Z,99430.47
2018-07-27T11:53:18.635Z,99421.16
2018-07-27T11:55:46.409Z,99422.29
2018-07-27T11:58:14.074Z,99417.04
2018-07-27T12:00:41.830Z,99421.18
2018-07-27T12:03:09.481Z,99415.06
2018-07-27T12:05:37.141Z,99407.46
2018-07-27T12:08:04.942Z,99402.47
2018-07-27T12:10:36.782Z,99409.36
2018-07-27T12:13:05.065Z,99412.30
2018-07-27T12:15:32.817Z,99399.33
2018-07-27T12:18:00.462Z,99409.77
2018-07-27T12:20:28.407Z,99403.08
2018-07-27T12:22:55.993Z,99393.15
2018-07-27T12:25:23.757Z,99379.12
2018-07-27T12:27:51.458Z,99385.44
2018-07-27T12:30:19.139Z,99384.01
2018-07-27T12:32:46.845Z,99385.70
2018-07-27T12:35:14.477Z,99384.13
2018-07-27T12:37:42.170Z,99374.59
2018-07-27T12:40:09.888Z,99374.20
2018-07-27T12:42:37.638Z,99381.55
2018-07-27T12:45:05.372Z,99375.35
2018-07-27T12:47:33.053Z,99372.78
2018-07-27T12:50:01.081Z,99366.39
2018-07-27T12:52:28.844Z,99362.80
2018-07-27T12:54:56.498Z,99361.34
2018-07-27T12:57:24.232Z,99363.30
2018-07-27T12:59:51.974Z,99350.16
2018-07-27T13:02:19.630Z,99345.25
2018-07-27T13:04:47.397Z,99350.75
2018-07-27T13:07:15.143Z,99353.69
2018-07-27T13:09:42.979Z,99351.33
2018-07-27T13:12:10.666Z,99343.02
2018-07-27T13:14:38.391Z,99346.84
2018-07-27T13:17:06.209Z,99336.72
2018-07-27T13:19:33.859Z,99336.18
2018-07-27T13:22:02.146Z,99330.42
2018-07-27T13:26:57.485Z,99324.71
2018-07-27T13:29:25.254Z,99322.70
2018-07-27T13:31:54.955Z,99318.34
2018-07-27T13:35:03.532Z,99316.48
2018-07-27T13:37:32.574Z,99305.59
2018-07-27T13:40:01.408Z,99312.27
2018-07-27T13:42:30.348Z,99305.39
2018-07-27T13:44:58.062Z,99299.55
2018-07-27T13:47:25.741Z,99296.98
2018-07-27T13:49:53.666Z,99290.53
2018-07-27T13:52:21.394Z,99289.98
2018-07-27T13:54:49.125Z,99296.72
2018-07-27T13:57:17.146Z,99290.63
2018-07-27T13:59:45.053Z,99288.23
2018-07-27T14:02:13.085Z,99290.09
2018-07-27T14:04:40.921Z,99297.61
2018-07-27T14:07:09.646Z,99294.26
2018-07-27T14:09:37.427Z,99295.78
2018-07-27T14:12:05.325Z,99291.32
2018-07-27T14:14:33.034Z,99289.59
2018-07-27T14:17:00.750Z,99277.34
2018-07-27T14:19:29.071Z,99271.46
2018-07-27T14:21:56.858Z,99271.53
2018-07-27T14:24:24.558Z,99277.91
2018-07-27T14:26:52.333Z,99267.13
2018-07-27T14:29:20.109Z,99274.23
2018-07-27T14:31:47.849Z,99277.55
2018-07-27T14:34:15.625Z,99274.39
2018-07-27T14:36:43.293Z,99276.75
2018-07-27T14:39:12.740Z,99274.50
2018-07-27T14:41:40.818Z,99271.88
2018-07-27T14:44:08.509Z,99265.55
2018-07-27T14:46:36.481Z,99261.81
2018-07-27T14:49:11.466Z,99259.61
2018-07-27T14:51:39.746Z,99263.33
2018-07-27T14:54:11.710Z,99261.94
2018-07-27T14:56:40.191Z,99262.00
2018-07-27T14:59:08.576Z,99257.19
2018-07-27T15:01:36.546Z,99254.28
2018-07-27T15:04:04.320Z,99254.09
2018-07-27T15:06:32.065Z,99256.03
2018-07-27T15:08:59.777Z,99248.88
2018-07-27T15:11:27.451Z,99258.84
2018-07-27T15:13:55.191Z,99251.97
2018-07-27T15:16:22.963Z,99250.06
2018-07-27T15:18:50.636Z,99246.09
2018-07-27T15:21:18.413Z,99240.16
2018-07-27T15:23:46.072Z,99244.07
2018-07-27T15:26:13.939Z,99235.62
2018-07-27T15:28:41.621Z,99245.01
2018-07-27T15:31:09.373Z,99241.00
2018-07-27T15:33:36.996Z,99241.91
2018-07-27T15:36:04.878Z,99230.98
2018-07-27T15:38:32.597Z,99233.64
2018-07-27T15:41:00.597Z,99235.59
2018-07-27T15:43:28.282Z,99224.36
2018-07-27T15:45:55.993Z,99227.62
2018-07-27T15:48:23.980Z,99222.53
2018-07-27T15:50:51.676Z,99225.54
2018-07-27T15:53:19.389Z,99215.23
2018-07-27T15:55:47.113Z,99219.62
2018-07-27T15:58:14.816Z,99206.20
2018-07-27T16:00:42.500Z,99205.24
2018-07-27T16:03:10.273Z,99199.38
2018-07-27T16:05:37.949Z,99196.52
2018-07-27T16:08:06.026Z,99197.70
2018-07-27T16:10:36.326Z,99195.50
2018-07-27T16:13:04.134Z,99195.71
2018-07-27T16:15:31.817Z,99189.70
2018-07-27T16:17:59.502Z,99187.47
2018-07-27T16:20:27.151Z,99191.92
2018-07-27T16:22:54.853Z,99184.20
2018-07-27T16:25:22.683Z,99193.03
2018-07-27T16:27:50.349Z,99187.33
2018-07-27T16:30:18.065Z,99190.38
2018-07-27T16:32:45.776Z,99194.47
2018-07-27T16:35:13.443Z,99191.45
2018-07-27T16:37:41.289Z,99192.76
2018-07-27T16:40:09.054Z,99195.70
2018-07-27T16:42:36.737Z,99192.25
2018-07-27T16:45:04.731Z,99189.38
2018-07-27T16:47:32.371Z,99182.08
2018-07-27T16:50:00.022Z,99182.59
2018-07-27T16:52:27.720Z,99179.83
2018-07-27T16:54:55.441Z,99180.86
2018-07-27T16:57:23.093Z,99183.73
2018-07-27T16:59:50.764Z,99182.98
2018-07-27T17:02:18.429Z,99186.28
2018-07-27T17:04:46.121Z,99189.79
2018-07-27T17:07:13.786Z,99183.22
2018-07-27T17:09:41.540Z,99177.98
2018-07-27T17:12:09.241Z,99176.41
2018-07-27T17:14:37.006Z,99178.08
2018-07-27T17:17:04.706Z,99172.23
2018-07-27T17:19:32.363Z,99171.66
2018-07-27T17:22:00.029Z,99168.94
2018-07-27T17:24:27.685Z,99173.17
2018-07-27T17:26:55.399Z,99173.33
2018-07-27T17:29:23.125Z,99166.41
2018-07-27T17:31:50.942Z,99171.30
2018-07-27T17:34:18.873Z,99174.69
2018-07-27T17:36:46.637Z,99175.95
2018-07-27T17:39:14.305Z,99173.84
2018-07-27T17:41:42.082Z,99172.05
2018-07-27T17:44:09.837Z,99168.84
2018-07-27T17:46:37.712Z,99162.83
2018-07-27T17:49:05.814Z,99160.16
2018-07-27T17:51:33.445Z,99160.08
2018-07-27T17:54:01.109Z,99159.55
2018-07-27T17:56:28.757Z,99156.86
2018-07-27T17:58:56.428Z,99159.18
2018-07-27T18:01:24.914Z,99153.34
2018-07-27T18:03:52.661Z,99153.83
2018-07-27T18:06:20.378Z,99157.64
2018-07-27T18:08:48.034Z,99150.86
2018-07-27T18:11:15.767Z,99152.22
2018-07-27T18:13:43.453Z,99157.37
2018-07-27T18:16:11.097Z,99151.12
2018-07-27T18:18:38.862Z,99151.84
2018-07-27T18:21:06.790Z,99159.57
2018-07-27T18:23:34.721Z,99163.45
2018-07-27T18:26:02.494Z,99158.02
2018-07-27T18:28:30.318Z,99161.41
2018-07-27T18:30:57.976Z,99161.28
2018-07-27T18:33:25.655Z,99162.42
2018-07-27T18:35:53.418Z,99161.52
2018-07-27T18:38:21.255Z,99166.05
2018-07-27T18:40:48.954Z,99168.41
2018-07-27T18:43:16.700Z,99166.38
2018-07-27T18:45:44.341Z,99169.83
2018-07-27T18:48:11.993Z,99171.19
2018-07-27T18:50:39.681Z,99172.78
2018-07-27T18:53:07.571Z,99170.70
2018-07-27T18:55:35.213Z,99181.78
2018-07-27T18:58:02.901Z,99178.72
2018-07-27T19:00:30.561Z,99182.85
2018-07-27T19:02:58.309Z,99175.40
2018-07-27T19:05:26.010Z,99183.03
2018-07-27T19:07:53.661Z,99179.59
2018-07-27T19:10:36.208Z,99185.46
2018-07-27T19:13:03.944Z,99189.92
2018-07-27T19:15:31.601Z,99187.97
2018-07-27T19:17:59.369Z,99192.45
2018-07-27T19:20:27.044Z,99196.47
2018-07-27T19:22:54.757Z,99198.65
2018-07-27T19:25:22.552Z,99200.92
2018-07-27T19:27:50.172Z,99205.63
2018-07-27T19:30:17.848Z,99213.62
2018-07-27T19:32:45.509Z,99220.84
2018-07-27T19:35:13.168Z,99211.62
2018-07-27T19:37:40.805Z,99220.05
2018-07-27T19:40:08.512Z,99212.56
2018-07-27T19:42:36.157Z,99223.47
2018-07-27T19:45:05.010Z,99221.98
2018-07-27T19:47:32.700Z,99219.95
2018-07-27T19:50:00.361Z,99221.95
2018-07-27T19:52:28.054Z,99220.80
2018-07-27T19:54:55.797Z,99220.75
2018-07-27T19:57:23.500Z,99222.89
2018-07-27T19:59:51.137Z,99228.25
2018-07-27T20:02:18.804Z,99224.20
2018-07-27T20:04:46.601Z,99222.29
2018-07-27T20:07:14.348Z,99228.52
2018-07-27T20:09:42.148Z,99222.28
2018-07-27T20:12:09.855Z,99224.89
2018-07-27T20:14:37.528Z,99223.16
2018-07-27T20:17:05.330Z,99220.27
2018-07-27T20:19:32.979Z,99222.84
2018-07-27T20:22:00.743Z,99222.41
2018-07-27T20:24:28.388Z,99219.52
2018-07-27T20:26:56.044Z,99223.91
2018-07-27T20:29:23.816Z,99222.05
2018-07-27T20:31:51.441Z,99226.02
2018-07-27T20:34:19.466Z,99225.54
2018-07-27T20:36:47.214Z,99225.80
2018-07-27T20:39:14.895Z,99228.34
2018-07-27T20:41:43.285Z,99231.71
2018-07-27T20:44:11.096Z,99228.78
2018-07-27T20:46:38.813Z,99233.17
2018-07-27T20:49:06.725Z,99234.64
2018-07-27T20:51:34.366Z,99231.81
2018-07-27T20:54:02.047Z,99228.47
2018-07-27T20:56:30.598Z,99228.59
2018-07-27T20:58:58.316Z,99223.70
2018-07-27T21:01:26.090Z,99230.01
2018-07-27T21:03:53.746Z,99228.80
2018-07-27T21:06:21.526Z,99222.42
2018-07-27T21:08:49.291Z,99224.95
2018-07-27T21:11:17.101Z,99220.03
2018-07-27T21:13:44.897Z,99218.98
2018-07-27T21:16:12.566Z,99215.26
2018-07-27T21:18:40.339Z,99219.42
2018-07-27T21:21:08.097Z,99220.04
2018-07-27T21:23:35.781Z,99216.22
2018-07-27T21:26:03.566Z,99221.30
2018-07-27T21:28:31.292Z,99214.51
2018-07-27T21:30:58.981Z,99218.66
2018-07-27T21:33:26.757Z,99213.22
2018-07-27T21:35:54.380Z,99213.52
2018-07-27T21:38:22.157Z,99212.65
2018-07-27T21:40:49.832Z,99214.31
2018-07-27T21:45:51.905Z,99210.02
2018-07-27T21:48:19.517Z,99215.28
2018-07-27T21:50:47.261Z,99211.62
2018-07-27T21:53:14.959Z,99213.63
2018-07-27T21:55:42.605Z,99214.34
2018-07-27T21:58:10.317Z,99214.73
2018-07-27T22:00:38.077Z,99213.14
2018-07-27T22:03:05.898Z,99212.23
2018-07-27T22:05:33.992Z,99209.77
2018-07-27T22:08:01.659Z,99208.30
2018-07-27T22:10:29.371Z,99212.73
2018-07-27T22:12:57.105Z,99209.41
2018-07-27T22:15:26.225Z,99207.98
2018-07-27T22:17:54.001Z,99212.02
2018-07-27T22:20:22.850Z,99209.33
2018-07-27T22:22:50.663Z,99211.85
2018-07-27T22:25:18.380Z,99217.80
2018-07-27T22:27:46.753Z,99208.57
2018-07-27T22:30:14.451Z,99217.17
2018-07-27T22:32:42.113Z,99215.09
2018-07-27T22:35:09.874Z,99214.67
2018-07-27T22:37:38.834Z,99211.20
2018-07-27T22:40:07.529Z,99214.75
2018-07-27T22:42:35.176Z,99216.55
2018-07-27T22:45:03.178Z,99209.55
2018-07-27T22:47:30.843Z,99209.01
2018-07-27T22:49:58.570Z,99207.68
2018-07-27T22:52:26.300Z,99204.63
2018-07-27T22:54:54.109Z,99198.00
2018-07-27T22:57:21.777Z,99199.14
2018-07-27T22:59:49.433Z,99195.67
2018-07-27T23:02:17.102Z,99190.69
2018-07-27T23:04:44.791Z,99185.73
2018-07-27T23:07:12.504Z,99181.84
2018-07-27T23:09:40.449Z,99176.84
2018-07-27T23:12:08.176Z,99183.59
2018-07-27T23:14:35.953Z,99190.84
2018-07-27T23:17:03.726Z,99189.94
2018-07-27T23:19:31.407Z,99188.34
2018-07-27T23:21:59.117Z,99184.54
2018-07-27T23:24:26.753Z,99189.62
2018-07-27T23:26:54.452Z,99188.31
2018-07-27T23:29:22.113Z,99192.84
2018-07-27T23:31:49.808Z,99192.30
2018-07-27T23:34:17.520Z,99196.27
2018-07-27T23:36:45.197Z,99197.40
2018-07-27T23:39:13.691Z,99190.49
2018-07-27T23:41:42.054Z,99193.41
2018-07-27T23:44:09.794Z,99193.47
2018-07-27T23:46:37.542Z,99190.95
2018-07-27T23:49:05.273Z,99191.33
2018-07-27T23:51:32.932Z,99184.13
2018-07-27T23:54:00.806Z,99186.00
2018-07-27T23:56:28.637Z,99186.27
2018-07-27T23:58:56.333Z,99182.53
